Time;durP1;ratioP1;P1;durP2;ratioP2;P2;SDS_P1;SDS_P2;PMS_P1;PMS_P2;Temp;Humidity;BMP_temperature;BMP_pressure;BME280_temperature;BME280_humidity;BME280_pressure;Samples;Min_cycle;Max_cycle;Signal;HPM_P1;HPM_P2
2022/04/11 00:02:13;;;;;;;2.88;2.58;;;5.70;99.90;;;;;;5127420;28;20735;-82
2022/04/11 00:04:38;;;;;;;2.88;2.45;;;6.20;99.90;;;;;;5108801;28;20377;-83
2022/04/11 00:07:04;;;;;;;3.07;2.77;;;5.60;99.90;;;;;;5126096;28;20388;-83
2022/04/11 00:09:30;;;;;;;2.80;2.60;;;5.60;99.90;;;;;;5128075;28;20444;-83
2022/04/11 00:11:56;;;;;;;3.92;2.47;;;5.50;99.90;;;;;;5127084;28;20399;-82
2022/04/11 00:14:23;;;;;;;2.90;2.70;;;5.40;99.90;;;;;;5127145;28;20377;-84
2022/04/11 00:16:48;;;;;;;2.70;2.22;;;5.90;99.90;;;;;;5126947;28;20381;-81
2022/04/11 00:19:14;;;;;;;3.20;2.83;;;5.40;99.90;;;;;;5126468;28;20395;-83
2022/04/11 00:21:40;;;;;;;3.00;2.70;;;5.50;99.90;;;;;;5126344;28;20453;-83
2022/04/11 00:24:06;;;;;;;4.00;2.90;;;5.60;99.90;;;;;;5126839;28;20387;-82
2022/04/11 00:26:31;;;;;;;2.72;2.50;;;5.60;99.90;;;;;;5126214;28;20380;-82
2022/04/11 00:28:57;;;;;;;3.13;2.63;;;6.50;99.90;;;;;;5127738;28;20392;-83
2022/04/11 00:31:22;;;;;;;3.80;2.60;;;5.60;99.90;;;;;;5125142;28;20410;-83
2022/04/11 00:33:48;;;;;;;2.87;2.67;;;5.50;99.90;;;;;;5125837;28;20380;-83
2022/04/11 00:36:14;;;;;;;3.40;3.10;;;5.30;99.90;;;;;;5126236;28;20885;-83
2022/04/11 00:38:39;;;;;;;3.30;2.70;;;5.30;99.90;;;;;;5125880;28;20384;-82
2022/04/11 00:41:05;;;;;;;3.17;2.70;;;5.30;99.90;;;;;;5126403;28;20403;-82
2022/04/11 00:43:35;;;;;;;3.63;3.00;;;5.40;99.90;;;;;;5125931;28;20377;-82
2022/04/11 00:46:02;;;;;;;3.55;2.88;;;5.40;99.90;;;;;;5116539;28;20372;-83
2022/04/11 00:48:28;;;;;;;3.13;2.85;;;5.50;99.90;;;;;;5125811;28;20399;-83
2022/04/11 00:51:00;;;;;;;3.40;3.03;;;5.60;99.90;;;;;;5106881;28;20384;-83
2022/04/11 00:53:27;;;;;;;3.10;2.80;;;5.50;99.90;;;;;;5122299;28;20433;-82
2022/04/11 00:55:54;;;;;;;3.00;2.70;;;5.40;99.90;;;;;;5123450;28;20422;-82
2022/04/11 00:58:21;;;;;;;3.45;3.00;;;5.30;99.90;;;;;;5104470;28;20411;-83
2022/04/11 01:00:47;;;;;;;3.15;2.90;;;5.40;99.90;;;;;;5123638;28;20427;-83
2022/04/11 01:03:13;;;;;;;2.80;2.60;;;5.30;99.90;;;;;;5125244;28;20400;-83
2022/04/11 01:05:40;;;;;;;3.40;2.97;;;5.30;99.90;;;;;;5107456;28;20391;-82
2022/04/11 01:08:07;;;;;;;4.20;3.25;;;5.30;99.90;;;;;;5125493;28;20388;-83
2022/04/11 01:10:34;;;;;;;2.83;2.63;;;5.40;99.90;;;;;;5126285;28;20384;-83
2022/04/11 01:13:00;;;;;;;3.08;2.75;;;5.80;99.90;;;;;;5125728;28;20384;-82
2022/04/11 01:15:26;;;;;;;3.08;2.72;;;5.50;99.90;;;;;;5125980;28;20381;-82
2022/04/11 01:17:51;;;;;;;3.92;2.55;;;5.50;99.90;;;;;;5124959;28;20455;-82
2022/04/11 01:20:17;;;;;;;4.13;2.80;;;5.30;99.90;;;;;;5125094;28;20499;-82
2022/04/11 01:22:44;;;;;;;5.63;3.00;;;5.20;99.90;;;;;;5124078;28;20767;-82
2022/04/11 01:25:14;;;;;;;3.00;2.70;;;5.20;99.90;;;;;;5125038;28;20458;-82
2022/04/11 01:27:41;;;;;;;2.88;2.58;;;5.20;99.90;;;;;;5106743;28;20457;-82
2022/04/11 01:30:09;;;;;;;3.13;2.83;;;5.20;99.90;;;;;;5114429;28;20401;-82
2022/04/11 01:32:35;;;;;;;2.88;2.40;;;5.10;99.90;;;;;;5123068;28;20391;-83
2022/04/11 01:35:01;;;;;;;3.00;2.70;;;5.20;99.90;;;;;;5124442;28;20391;-83
2022/04/11 01:37:27;;;;;;;3.22;2.90;;;5.20;99.90;;;;;;5124422;28;20396;-83
2022/04/11 01:39:53;;;;;;;3.20;2.90;;;5.10;99.90;;;;;;5124995;28;20408;-82
2022/04/11 01:42:18;;;;;;;2.95;2.65;;;5.10;99.90;;;;;;5125605;28;20364;-82
2022/04/11 01:44:44;;;;;;;3.13;2.83;;;5.20;99.90;;;;;;5124787;28;20391;-83
2022/04/11 01:47:10;;;;;;;2.88;2.67;;;5.10;99.90;;;;;;5123825;28;20392;-82
2022/04/11 01:49:35;;;;;;;3.92;2.75;;;4.90;99.90;;;;;;5125545;28;20392;-83
2022/04/11 01:52:01;;;;;;;2.92;2.70;;;4.80;99.90;;;;;;5127744;28;20889;-82
2022/04/11 01:54:27;;;;;;;2.70;2.50;;;4.90;99.90;;;;;;5127061;28;20388;-82
2022/04/11 01:56:53;;;;;;;3.03;2.83;;;4.80;99.90;;;;;;5125448;28;20416;-82
2022/04/11 01:59:18;;;;;;;3.07;2.80;;;4.80;99.90;;;;;;5124734;28;20385;-82
2022/04/11 02:01:44;;;;;;;3.65;3.20;;;4.80;99.90;;;;;;5123441;28;20395;-82
2022/04/11 02:04:10;;;;;;;3.65;3.35;;;4.70;99.90;;;;;;5106870;28;20467;-82
2022/04/11 02:06:36;;;;;;;4.53;4.13;;;4.70;99.90;;;;;;5123170;28;20380;-82
2022/04/11 02:09:03;;;;;;;3.95;3.47;;;4.80;99.90;;;;;;5126567;28;20460;-81
2022/04/11 02:11:28;;;;;;;4.07;3.67;;;4.80;99.90;;;;;;5128842;28;20874;-82
2022/04/11 02:13:54;;;;;;;4.37;3.97;;;4.80;99.90;;;;;;5129074;28;20387;-82
2022/04/11 02:16:20;;;;;;;5.35;3.70;;;5.10;99.90;;;;;;5128453;28;20391;-82
2022/04/11 02:18:46;;;;;;;4.70;4.03;;;4.70;99.90;;;;;;5128711;28;20384;-82
2022/04/11 02:21:14;;;;;;;4.30;3.90;;;4.70;99.90;;;;;;5127488;28;20403;-81
2022/04/11 02:23:40;;;;;;;4.35;3.95;;;4.70;99.90;;;;;;5128444;28;20380;-82
2022/04/11 02:26:06;;;;;;;5.10;4.23;;;4.80;99.90;;;;;;5126508;28;20422;-82
2022/04/11 02:28:32;;;;;;;4.50;4.10;;;4.80;99.90;;;;;;5116711;27;20438;-81
2022/04/11 02:30:57;;;;;;;4.70;4.30;;;4.90;99.90;;;;;;5120788;27;20382;-82
2022/04/11 02:33:23;;;;;;;4.43;3.90;;;5.00;99.90;;;;;;5105667;28;20438;-82
2022/04/11 02:35:49;;;;;;;4.22;3.92;;;4.90;99.90;;;;;;5119173;28;20386;-82
2022/04/11 02:38:15;;;;;;;5.60;4.38;;;4.80;99.90;;;;;;5128251;28;20479;-82
2022/04/11 02:40:40;;;;;;;4.47;4.17;;;4.80;99.90;;;;;;5127606;28;20408;-82
2022/04/11 02:43:06;;;;;;;4.73;4.33;;;5.20;99.90;;;;;;5119436;28;20395;-82
2022/04/11 02:45:32;;;;;;;5.07;4.63;;;4.90;99.90;;;;;;5120434;28;20436;-81
2022/04/11 02:47:57;;;;;;;5.20;4.50;;;4.90;99.90;;;;;;5110293;28;20380;-82
2022/04/11 02:50:23;;;;;;;5.30;4.45;;;5.10;99.90;;;;;;5128519;28;20384;-82
2022/04/11 02:52:49;;;;;;;5.05;4.65;;;4.90;99.90;;;;;;5124593;28;20388;-82
2022/04/11 02:55:15;;;;;;;5.10;4.50;;;4.90;99.90;;;;;;5128509;28;20850;-81
2022/04/11 02:57:40;;;;;;;5.10;4.70;;;4.80;99.90;;;;;;5127627;28;20878;-82
2022/04/11 03:00:14;;;;;;;5.00;4.50;;;4.90;99.90;;;;;;5127748;28;20396;-82
2022/04/11 03:02:40;;;;;;;4.78;4.38;;;4.80;99.90;;;;;;5127111;28;20372;-82
2022/04/11 03:05:06;;;;;;;5.07;4.53;;;4.80;99.90;;;;;;5127149;28;20746;-82
2022/04/11 03:07:32;;;;;;;4.70;4.30;;;4.70;99.90;;;;;;5108606;28;20391;-82
2022/04/11 03:09:58;;;;;;;4.70;4.30;;;4.80;99.90;;;;;;5127305;28;20846;-82
2022/04/11 03:12:25;;;;;;;5.03;4.53;;;5.00;99.90;;;;;;5127152;28;20844;-82
2022/04/11 03:14:51;;;;;;;4.90;4.40;;;4.70;99.90;;;;;;5127225;28;20433;-82
2022/04/11 03:17:17;;;;;;;5.15;4.65;;;4.70;99.90;;;;;;5128906;28;20429;-82
2022/04/11 03:19:46;;;;;;;4.83;4.43;;;4.60;99.90;;;;;;5127806;28;20401;-82
2022/04/11 03:22:12;;;;;;;4.65;4.30;;;4.70;99.90;;;;;;5128913;28;20383;-82
2022/04/11 03:24:38;;;;;;;5.78;4.50;;;4.80;99.90;;;;;;5110146;28;20410;-82
2022/04/11 03:27:04;;;;;;;4.78;4.38;;;4.70;99.90;;;;;;5128579;28;20372;-82
2022/04/11 03:29:30;;;;;;;5.03;4.55;;;4.70;99.90;;;;;;5125988;28;20372;-82
2022/04/11 03:31:56;;;;;;;5.72;5.22;;;4.70;99.90;;;;;;5114044;28;20372;-82
2022/04/11 03:34:22;;;;;;;5.50;4.88;;;4.70;99.90;;;;;;5109775;28;20380;-82
2022/04/11 03:36:48;;;;;;;5.23;4.83;;;5.60;99.90;;;;;;5106514;28;20376;-81
2022/04/11 03:39:14;;;;;;;4.97;4.45;;;4.60;99.90;;;;;;5127981;28;20463;-82
2022/04/11 03:41:43;;;;;;;4.75;4.35;;;4.60;99.90;;;;;;5127495;28;20413;-82
2022/04/11 03:44:10;;;;;;;5.10;4.68;;;4.60;99.90;;;;;;5126128;28;20417;-82
2022/04/11 03:46:36;;;;;;;5.28;4.78;;;4.70;99.90;;;;;;5107498;28;20408;-81
2022/04/11 03:49:02;;;;;;;5.13;4.63;;;4.60;99.90;;;;;;5124812;28;20381;-82
2022/04/11 03:51:27;;;;;;;4.80;4.40;;;4.60;99.90;;;;;;5124943;28;20387;-81
2022/04/11 03:53:53;;;;;;;5.15;4.65;;;4.60;99.90;;;;;;5125174;28;20388;-81
2022/04/11 03:56:19;;;;;;;5.00;4.60;;;4.70;99.90;;;;;;5125668;28;20376;-81
2022/04/11 03:58:45;;;;;;;5.00;4.60;;;4.70;99.90;;;;;;5122252;28;20393;-82
2022/04/11 04:01:10;;;;;;;5.40;4.90;;;4.70;99.90;;;;;;5123905;28;20404;-82
2022/04/11 04:03:37;;;;;;;5.53;5.03;;;4.70;99.90;;;;;;5107016;28;20429;-81
2022/04/11 04:06:04;;;;;;;5.20;4.80;;;4.80;99.90;;;;;;5106342;28;20377;-81
2022/04/11 04:08:29;;;;;;;5.57;5.07;;;4.70;99.90;;;;;;5125357;28;20463;-81
2022/04/11 04:10:55;;;;;;;5.90;5.40;;;4.80;99.90;;;;;;5123867;28;20396;-81
2022/04/11 04:13:21;;;;;;;5.83;5.23;;;4.70;99.90;;;;;;5125141;28;20395;-82
2022/04/11 04:15:46;;;;;;;6.23;5.53;;;4.70;99.90;;;;;;5098711;28;20528;-81
2022/04/11 04:18:12;;;;;;;5.73;5.23;;;4.60;99.90;;;;;;5105043;28;20482;-82
2022/04/11 04:20:39;;;;;;;6.00;5.40;;;4.60;99.90;;;;;;5113281;28;20406;-81
2022/04/11 04:23:05;;;;;;;6.28;5.40;;;4.60;99.90;;;;;;5119937;28;20377;-81
2022/04/11 04:25:35;;;;;;;5.80;5.30;;;4.50;99.90;;;;;;5124367;28;20373;-81
2022/04/11 04:28:02;;;;;;;8.30;5.85;;;4.30;99.90;;;;;;5121159;28;20380;-81
2022/04/11 04:30:28;;;;;;;6.47;5.17;;;4.40;99.90;;;;;;5124375;28;20391;-81
2022/04/11 04:32:58;;;;;;;5.97;5.18;;;4.40;99.90;;;;;;5106948;28;20392;-81
2022/04/11 04:35:24;;;;;;;6.13;5.35;;;4.50;99.90;;;;;;5092669;28;20452;-81
2022/04/11 04:37:50;;;;;;;6.38;5.72;;;4.50;99.90;;;;;;5122879;28;20742;-81
2022/04/11 04:40:15;;;;;;;5.67;5.07;;;4.50;99.90;;;;;;5123600;27;20512;-81
2022/04/11 04:42:41;;;;;;;5.50;5.10;;;4.40;99.90;;;;;;5119514;28;20388;-81
2022/04/11 04:45:07;;;;;;;5.97;5.37;;;4.50;99.90;;;;;;5124791;28;20382;-81
2022/04/11 04:47:33;;;;;;;6.88;5.80;;;4.40;99.90;;;;;;5102079;28;20406;-81
2022/04/11 04:49:59;;;;;;;6.00;5.50;;;4.40;99.90;;;;;;5113048;28;20469;-81
2022/04/11 04:52:24;;;;;;;6.25;5.68;;;4.40;99.90;;;;;;5125467;28;20388;-82
2022/04/11 04:54:50;;;;;;;6.15;5.55;;;4.40;99.90;;;;;;5129850;28;20859;-83
2022/04/11 04:57:16;;;;;;;6.13;5.63;;;4.80;99.90;;;;;;5129518;28;20407;-82
2022/04/11 04:59:42;;;;;;;6.10;5.63;;;4.40;99.90;;;;;;5129326;28;20762;-82
2022/04/11 05:02:07;;;;;;;6.40;5.80;;;4.40;99.90;;;;;;5117624;28;20380;-81
2022/04/11 05:04:33;;;;;;;6.03;5.47;;;4.40;99.90;;;;;;5122799;28;20383;-82
2022/04/11 05:06:58;;;;;;;6.30;5.80;;;4.40;99.90;;;;;;5123097;28;20456;-82
2022/04/11 05:09:24;;;;;;;5.97;5.40;;;4.30;99.90;;;;;;5123403;28;20467;-82
2022/04/11 05:11:50;;;;;;;6.40;5.90;;;4.30;99.90;;;;;;5123619;28;20380;-82
2022/04/11 05:14:15;;;;;;;5.90;5.40;;;4.30;99.90;;;;;;5125834;28;20369;-82
2022/04/11 05:16:41;;;;;;;5.73;5.23;;;4.50;99.90;;;;;;5103923;28;20395;-82
2022/04/11 05:19:06;;;;;;;6.20;5.70;;;4.40;99.90;;;;;;5117415;28;20383;-82
2022/04/11 05:21:32;;;;;;;6.63;6.07;;;4.30;99.90;;;;;;5122190;28;20457;-81
2022/04/11 05:23:58;;;;;;;6.53;5.90;;;4.20;99.90;;;;;;5105320;28;20756;-83
2022/04/11 05:26:23;;;;;;;5.90;5.40;;;4.20;99.90;;;;;;5118844;28;20433;-82
2022/04/11 05:28:49;;;;;;;6.38;5.78;;;4.30;99.90;;;;;;5122600;28;20411;-82
2022/04/11 05:31:16;;;;;;;6.00;5.50;;;4.40;99.90;;;;;;5124418;28;20728;-82
2022/04/11 05:33:42;;;;;;;6.63;5.93;;;4.40;99.90;;;;;;5122769;28;20785;-83
2022/04/11 05:36:07;;;;;;;6.40;5.90;;;4.40;99.90;;;;;;5125816;28;20447;-83
2022/04/11 05:38:33;;;;;;;6.80;6.20;;;4.30;99.90;;;;;;5125988;28;20415;-83
2022/04/11 05:40:59;;;;;;;6.50;5.90;;;4.20;99.90;;;;;;5126275;28;20396;-81
2022/04/11 05:43:24;;;;;;;7.27;6.57;;;4.10;99.90;;;;;;5126834;28;20387;-83
2022/04/11 05:45:50;;;;;;;6.70;6.18;;;4.10;99.90;;;;;;5109847;28;20434;-84
2022/04/11 05:48:16;;;;;;;6.53;5.93;;;4.30;99.90;;;;;;5121531;28;20376;-82
2022/04/11 05:50:41;;;;;;;6.85;6.22;;;4.30;99.90;;;;;;5130578;28;20380;-82
2022/04/11 05:53:07;;;;;;;7.07;6.40;;;4.20;99.90;;;;;;5131071;28;20449;-82
2022/04/11 05:55:33;;;;;;;6.63;6.00;;;4.30;99.90;;;;;;5130513;28;20750;-82
2022/04/11 05:57:59;;;;;;;6.72;6.10;;;4.40;99.90;;;;;;5121088;28;20776;-82
2022/04/11 06:00:25;;;;;;;6.60;6.00;;;4.40;99.90;;;;;;5124115;28;20396;-82
2022/04/11 06:02:51;;;;;;;6.63;6.13;;;4.40;99.90;;;;;;5129144;28;20398;-82
2022/04/11 06:05:16;;;;;;;6.32;5.82;;;4.60;99.90;;;;;;5128786;28;20392;-82
2022/04/11 06:07:42;;;;;;;6.70;6.10;;;4.50;99.90;;;;;;5129357;28;20380;-83
2022/04/11 06:10:08;;;;;;;7.50;6.17;;;4.40;99.90;;;;;;5130256;28;20477;-83
2022/04/11 06:12:35;;;;;;;6.53;5.93;;;4.50;99.90;;;;;;5123671;28;20398;-82
2022/04/11 06:15:01;;;;;;;6.68;6.03;;;4.60;99.90;;;;;;5129632;28;20384;-82
2022/04/11 06:17:26;;;;;;;6.88;6.28;;;4.70;99.90;;;;;;5129494;28;20897;-81
2022/04/11 06:19:57;;;;;;;7.32;6.68;;;4.90;99.90;;;;;;5128047;28;20805;-81
2022/04/11 06:22:24;;;;;;;6.78;6.18;;;4.80;99.90;;;;;;5125340;28;20388;-82
2022/04/11 06:24:50;;;;;;;8.20;6.30;;;4.80;99.90;;;;;;5125838;28;20400;-82
2022/04/11 06:27:17;;;;;;;6.72;6.20;;;4.60;99.90;;;;;;5127250;27;20396;-81
2022/04/11 06:29:43;;;;;;;7.55;6.80;;;4.60;99.90;;;;;;5118406;28;20385;-82
2022/04/11 06:32:09;;;;;;;6.85;6.20;;;4.70;99.90;;;;;;5111395;28;20380;-82
2022/04/11 06:34:36;;;;;;;6.55;6.00;;;4.80;99.90;;;;;;5128525;28;20521;-82
2022/04/11 06:37:03;;;;;;;7.20;6.10;;;4.90;99.90;;;;;;5126734;28;20384;-83
2022/04/11 06:39:29;;;;;;;6.75;6.15;;;5.10;99.90;;;;;;5123222;28;20391;-82
2022/04/11 06:41:54;;;;;;;6.97;6.27;;;4.90;99.90;;;;;;5128747;28;20388;-82
2022/04/11 06:44:20;;;;;;;7.10;6.40;;;5.00;99.90;;;;;;5125953;28;20479;-83
2022/04/11 06:46:46;;;;;;;7.20;6.60;;;5.00;99.90;;;;;;5105651;28;20463;-82
2022/04/11 06:49:12;;;;;;;6.57;6.07;;;4.80;99.90;;;;;;5127131;28;20436;-83
2022/04/11 06:51:38;;;;;;;7.30;6.27;;;4.90;99.90;;;;;;5107902;28;20449;-82
2022/04/11 06:54:04;;;;;;;6.57;5.97;;;4.90;99.90;;;;;;5120095;28;20894;-82
2022/04/11 06:56:30;;;;;;;7.45;6.85;;;5.10;99.90;;;;;;5121913;28;20399;-82
2022/04/11 06:58:56;;;;;;;6.72;6.13;;;5.00;99.90;;;;;;5100467;28;20391;-82
2022/04/11 07:01:22;;;;;;;7.30;6.60;;;4.90;99.90;;;;;;5118156;28;20404;-82
2022/04/11 07:03:47;;;;;;;6.53;5.93;;;5.10;99.90;;;;;;5104936;28;20403;-81
2022/04/11 07:10:05;;;;;;;;;;;;;;;;;;;;;
2022/04/11 07:13:33;;;;;;;;;;;;;;;;;;;;;
2022/04/11 07:18:52;;;;;;;5.90;5.50;;;5.50;99.90;;;;;;5135259;22;20429;-82
2022/04/11 07:21:18;;;;;;;6.25;5.75;;;5.20;99.90;;;;;;5110450;28;20412;-82
2022/04/11 07:23:49;;;;;;;6.20;5.60;;;5.50;99.90;;;;;;5109982;28;20382;-81
2022/04/11 07:26:15;;;;;;;5.60;5.10;;;4.40;99.90;;;;;;5099460;28;20408;-83
2022/04/11 07:36:06;;;;;;;5.43;4.93;;;5.50;99.90;;;;;;5094148;28;20450;-83
2022/04/11 07:39:23;;;;;;;5.68;4.97;;;5.50;99.90;;;;;;5089325;28;20379;-83
2022/04/11 07:42:15;;;;;;;4.95;4.55;;;5.70;99.90;;;;;;5084155;28;20388;-83
2022/04/11 07:45:07;;;;;;;4.63;4.22;;;5.70;99.90;;;;;;5089214;28;20394;-83
2022/04/11 07:47:39;;;;;;;4.93;4.50;;;5.40;99.90;;;;;;5000030;28;20398;-82
2022/04/11 07:50:54;;;;;;;5.30;4.50;;;6.10;99.90;;;;;;5080379;28;20471;-82
2022/04/11 07:53:59;;;;;;;6.72;6.22;;;6.30;99.90;;;;;;5048734;28;20381;-83
2022/04/11 07:56:24;;;;;;;5.28;4.78;;;6.70;99.90;;;;;;5088459;28;20404;-83
2022/04/11 07:58:50;;;;;;;4.90;4.47;;;7.40;99.90;;;;;;5086641;28;20862;-83
2022/04/11 08:01:16;;;;;;;4.23;3.83;;;6.40;99.90;;;;;;5085383;28;20400;-83
2022/04/11 08:03:45;;;;;;;4.63;4.22;;;6.70;99.90;;;;;;5087237;28;20375;-83
2022/04/11 08:06:11;;;;;;;5.03;4.63;;;7.30;99.90;;;;;;5086382;28;20375;-83
2022/04/11 08:09:08;;;;;;;5.37;4.90;;;6.70;99.90;;;;;;5085654;28;20725;-83
2022/04/11 08:11:36;;;;;;;5.20;4.70;;;6.70;99.90;;;;;;5080982;28;20391;-82
2022/04/11 08:14:02;;;;;;;4.57;4.15;;;7.10;99.90;;;;;;5086345;28;20376;-82
2022/04/11 08:16:33;;;;;;;4.65;4.25;;;6.80;99.90;;;;;;5087005;28;20489;-83
2022/04/11 08:18:59;;;;;;;4.53;4.13;;;7.70;99.90;;;;;;5086721;28;20383;-83
2022/04/11 08:21:28;;;;;;;4.90;4.47;;;8.20;99.90;;;;;;5085574;28;20470;-83
2022/04/11 08:23:59;;;;;;;4.37;4.00;;;7.50;99.90;;;;;;5086148;28;20392;-83
2022/04/11 08:26:25;;;;;;;4.28;3.97;;;7.00;99.90;;;;;;5085197;28;20417;-83
2022/04/11 08:29:23;;;;;;;4.97;4.07;;;8.10;99.90;;;;;;5088807;28;20757;-82
2022/04/11 08:31:52;;;;;;;7.85;4.30;;;7.00;99.90;;;;;;5089905;28;20393;-83
2022/04/11 08:34:20;;;;;;;6.32;4.10;;;7.00;99.90;;;;;;5090386;28;20383;-83
2022/04/11 08:36:49;;;;;;;5.10;4.20;;;7.20;99.90;;;;;;5090329;28;20384;-83
2022/04/11 08:39:17;;;;;;;4.80;4.40;;;7.30;99.90;;;;;;5085918;28;20391;-82
2022/04/11 08:41:43;;;;;;;4.40;4.10;;;7.40;99.90;;;;;;5085082;28;20905;-83
2022/04/11 09:00:06;;;;;;;4.40;4.00;;;7.90;99.90;;;;;;5594354;22;20456;-82
2022/04/11 09:13:05;;;;;;;4.63;4.00;;;8.80;99.90;;;;;;5040269;28;20447;-82
2022/04/11 09:15:50;;;;;;;4.50;3.10;;;8.60;99.90;;;;;;5028242;28;20382;-81
2022/04/11 09:18:22;;;;;;;3.67;3.30;;;8.80;99.90;;;;;;5103604;28;20415;-82
2022/04/11 09:20:50;;;;;;;3.20;3.00;;;8.30;99.90;;;;;;5107624;28;20400;-82
2022/04/11 09:23:24;;;;;;;4.50;3.50;;;9.20;99.90;;;;;;5107770;28;20429;-83
2022/04/11 09:25:55;;;;;;;3.72;2.70;;;9.30;99.90;;;;;;5125592;28;20383;-82
2022/04/11 09:28:21;;;;;;;2.50;2.30;;;10.50;99.90;;;;;;5125609;28;20376;-83
2022/04/11 09:30:50;;;;;;;4.27;2.40;;;9.10;99.90;;;;;;5124497;28;20391;-83
2022/04/11 09:33:39;;;;;;;2.83;2.30;;;9.40;99.90;;;;;;5118349;28;20464;-83
2022/04/11 09:36:08;;;;;;;3.20;2.50;;;9.60;99.90;;;;;;5099515;28;20868;-83
2022/04/11 09:38:42;;;;;;;4.80;3.15;;;9.80;99.90;;;;;;5090401;28;20425;-83
2022/04/11 09:42:04;;;;;;;2.60;2.40;;;9.80;99.90;;;;;;5118606;28;20403;-83
2022/04/11 09:48:54;;;;;;;4.63;2.72;;;10.30;99.90;;;;;;5098093;28;20752;-83
2022/04/11 09:52:22;;;;;;;2.88;2.58;;;10.50;99.90;;;;;;5016590;28;20816;-83
2022/04/11 10:01:04;;;;;;;3.20;2.90;;;10.60;99.90;;;;;;5352148;22;20947;-83
2022/04/11 10:03:49;;;;;;;4.32;2.60;;;10.50;99.90;;;;;;5099367;28;20374;-83
2022/04/11 10:06:51;;;;;;;4.55;2.50;;;11.00;99.90;;;;;;5128562;22;21586;-83
2022/04/11 10:09:32;;;;;;;2.70;2.20;;;10.30;99.90;;;;;;5102612;28;20921;-83
2022/04/11 10:12:48;;;;;;;2.20;2.00;;;11.30;99.90;;;;;;5123571;28;20858;-83
2022/04/11 10:15:16;;;;;;;1.92;1.50;;;11.40;99.90;;;;;;5117962;28;20376;-83
2022/04/11 10:17:53;;;;;;;3.63;1.52;;;11.70;99.90;;;;;;5123574;28;20375;-83
2022/04/11 10:20:43;;;;;;;1.67;1.58;;;11.90;99.90;;;;;;5122594;28;20420;-84
2022/04/11 10:23:21;;;;;;;1.50;1.40;;;11.70;99.90;;;;;;5122053;28;20391;-83
2022/04/11 10:25:57;;;;;;;1.88;1.70;;;12.20;99.90;;;;;;5124602;28;20381;-83
2022/04/11 10:28:25;;;;;;;1.40;1.30;;;11.40;99.90;;;;;;5124577;28;20467;-83
2022/04/11 10:31:38;;;;;;;1.53;1.20;;;13.50;99.90;;;;;;5127045;28;20429;-83
2022/04/11 10:34:08;;;;;;;1.48;1.10;;;12.80;99.90;;;;;;5043167;28;20907;-83
2022/04/11 10:36:38;;;;;;;2.33;1.17;;;12.90;99.90;;;;;;5113063;28;20483;-83
2022/04/11 10:39:23;;;;;;;1.30;1.20;;;13.20;99.90;;;;;;5124539;28;20391;-83
2022/04/11 10:41:57;;;;;;;2.13;1.10;;;13.50;99.90;;;;;;5128053;28;20380;-82
2022/04/11 10:44:42;;;;;;;1.13;0.82;;;13.70;99.90;;;;;;5102654;28;20429;-82
2022/04/11 10:47:34;;;;;;;1.27;1.00;;;13.90;99.90;;;;;;5114688;28;20368;-83
2022/04/11 10:50:21;;;;;;;1.97;1.17;;;13.90;99.90;;;;;;5118877;28;20971;-82
2022/04/11 10:52:58;;;;;;;2.08;1.02;;;13.90;99.90;;;;;;5112249;28;20392;-82
2022/04/11 10:55:27;;;;;;;1.40;1.20;;;14.00;99.90;;;;;;5128891;28;20372;-83
2022/04/11 10:58:07;;;;;;;1.70;1.10;;;13.80;99.90;;;;;;5127637;28;20376;-83
2022/04/11 11:00:34;;;;;;;2.13;0.82;;;14.30;99.90;;;;;;5130552;28;20433;-83
2022/04/11 11:03:10;;;;;;;0.93;0.90;;;14.30;99.90;;;;;;5108431;28;20380;-83
2022/04/11 11:05:51;;;;;;;3.47;1.40;;;14.20;99.90;;;;;;5128015;28;20412;-83
2022/04/11 11:08:21;;;;;;;1.38;1.00;;;14.10;99.90;;;;;;5110515;28;20398;-82
2022/04/11 11:10:59;;;;;;;1.52;1.10;;;14.30;99.90;;;;;;5129402;28;20467;-83
2022/04/11 11:13:37;;;;;;;1.60;1.23;;;15.10;99.90;;;;;;5127844;28;20379;-84
2022/04/11 11:16:18;;;;;;;1.45;0.90;;;14.60;99.90;;;;;;5127384;28;20377;-83
2022/04/11 11:18:50;;;;;;;3.53;1.05;;;14.90;99.90;;;;;;5128313;28;20372;-83
2022/04/11 11:21:21;;;;;;;3.00;1.20;;;15.00;99.90;;;;;;5125745;28;20381;-84
2022/04/11 11:24:12;;;;;;;1.45;1.10;;;15.20;99.90;;;;;;5126897;28;20373;-83
2022/04/11 11:26:45;;;;;;;2.22;0.82;;;15.20;99.40;;;;;;5126917;28;20384;-83
2022/04/11 11:29:31;;;;;;;1.58;0.93;;;15.00;98.40;;;;;;5126781;28;20473;-83
2022/04/11 11:31:59;;;;;;;1.30;0.90;;;15.00;99.10;;;;;;5124635;28;20384;-83
2022/04/11 11:34:30;;;;;;;2.20;0.80;;;15.30;99.80;;;;;;5125457;28;20412;-83
2022/04/11 11:37:01;;;;;;;1.35;1.00;;;15.20;99.50;;;;;;5125375;28;20388;-83
2022/04/11 11:39:30;;;;;;;2.35;1.20;;;15.30;98.80;;;;;;5127487;28;20388;-84
2022/04/11 11:42:08;;;;;;;3.90;3.60;;;15.40;99.10;;;;;;5125282;28;20383;-83
2022/04/11 11:44:46;;;;;;;1.52;1.00;;;15.50;98.80;;;;;;5107164;28;20396;-83
2022/04/11 11:47:25;;;;;;;3.00;1.05;;;15.50;98.40;;;;;;5104630;28;20410;-83
2022/04/11 11:49:53;;;;;;;1.77;1.00;;;15.80;98.70;;;;;;5125400;28;20461;-83
2022/04/11 11:52:30;;;;;;;1.95;0.90;;;15.60;98.80;;;;;;5125693;28;20393;-83
2022/04/11 11:54:58;;;;;;;1.30;0.75;;;16.00;99.80;;;;;;5122205;28;20412;-84
2022/04/11 11:57:35;;;;;;;1.20;0.82;;;16.10;99.10;;;;;;5106599;28;20386;-83
2022/04/11 12:00:11;;;;;;;1.42;0.95;;;16.20;96.80;;;;;;5125869;28;20407;-83
2022/04/11 12:05:30;;;;;;;2.03;0.90;;;16.00;97.00;;;;;;5126687;28;20437;-83
2022/04/11 12:08:32;;;;;;;2.22;0.90;;;16.50;99.30;;;;;;5124751;28;20399;-84
2022/04/11 12:11:09;;;;;;;1.70;1.08;;;16.50;97.10;;;;;;5097096;28;20417;-84
2022/04/11 12:13:38;;;;;;;1.23;0.80;;;16.70;98.10;;;;;;5124683;28;20892;-83
2022/04/11 12:16:23;;;;;;;1.58;0.75;;;16.30;95.40;;;;;;5124567;28;20463;-83
2022/04/11 12:18:56;;;;;;;2.28;0.90;;;16.70;95.70;;;;;;5124213;28;20377;-84
2022/04/11 12:21:48;;;;;;;2.05;0.80;;;16.60;94.80;;;;;;5118282;28;20447;-83
2022/04/11 12:24:13;;;;;;;1.50;0.95;;;16.40;96.90;;;;;;5121921;28;20504;-83
2022/04/11 12:26:52;;;;;;;1.90;0.90;;;16.40;97.50;;;;;;5131331;28;20384;-83
2022/04/11 12:29:45;;;;;;;2.08;0.90;;;16.80;95.20;;;;;;5130566;28;20429;-85
2022/04/11 12:32:21;;;;;;;1.25;0.70;;;16.80;96.70;;;;;;5128947;28;20376;-83
2022/04/11 12:34:54;;;;;;;1.00;0.70;;;17.10;95.50;;;;;;5126816;28;20373;-84
2022/04/11 12:37:20;;;;;;;1.05;0.60;;;17.10;96.20;;;;;;5127479;28;20373;-83
2022/04/11 12:40:01;;;;;;;2.03;0.90;;;17.30;95.50;;;;;;5108892;28;20384;-84
2022/04/11 12:42:35;;;;;;;1.30;0.80;;;17.20;93.90;;;;;;5109098;28;20735;-83
2022/04/11 12:45:11;;;;;;;2.55;0.93;;;17.30;94.30;;;;;;5128189;28;20376;-84
2022/04/11 12:48:07;;;;;;;1.33;0.82;;;17.30;94.30;;;;;;5121423;28;20376;-85
2022/04/11 12:50:34;;;;;;;1.60;1.00;;;17.40;93.60;;;;;;5110357;28;20401;-84
2022/04/11 12:53:03;;;;;;;1.05;0.90;;;17.50;95.00;;;;;;5127603;28;20372;-83
2022/04/11 12:55:40;;;;;;;1.77;1.10;;;17.30;94.10;;;;;;5127144;28;20385;-84
2022/04/11 12:58:24;;;;;;;0.82;0.63;;;17.80;94.10;;;;;;5111587;28;20877;-83
2022/04/11 13:01:03;;;;;;;2.50;0.70;;;17.50;93.60;;;;;;5092165;28;20397;-83
2022/04/11 13:03:32;;;;;;;1.77;0.90;;;17.50;93.70;;;;;;5125411;28;20788;-85
2022/04/11 13:06:02;;;;;;;1.95;0.95;;;17.60;95.80;;;;;;5122441;28;20877;-83
2022/04/11 13:08:33;;;;;;;1.33;1.00;;;17.90;94.40;;;;;;5099996;28;20783;-84
2022/04/11 13:11:10;;;;;;;1.48;0.90;;;17.80;93.50;;;;;;5087033;28;20414;-84
2022/04/11 13:13:43;;;;;;;1.52;1.13;;;17.40;93.20;;;;;;5120854;28;20390;-83
2022/04/11 13:18:58;;;;;;;2.20;0.80;;;17.50;93.60;;;;;;5124424;28;20395;-84
2022/04/11 13:21:26;;;;;;;1.17;0.70;;;17.80;92.80;;;;;;5121606;28;20464;-83
2022/04/11 13:24:05;;;;;;;2.22;1.00;;;17.80;91.90;;;;;;5123996;28;20384;-83
2022/04/11 13:26:34;;;;;;;1.33;0.70;;;17.70;91.90;;;;;;5123474;28;20381;-82
2022/04/11 13:29:03;;;;;;;1.30;0.70;;;17.60;92.30;;;;;;5123567;28;20392;-83
2022/04/11 13:31:28;;;;;;;1.40;0.70;;;17.70;92.40;;;;;;5120554;28;20606;-82
2022/04/11 13:33:59;;;;;;;1.80;0.60;;;17.60;91.80;;;;;;5112076;28;20386;-81
2022/04/11 13:36:29;;;;;;;1.52;0.70;;;17.90;91.50;;;;;;5087534;28;20386;-84
2022/04/11 13:38:59;;;;;;;1.42;1.00;;;17.60;93.00;;;;;;5104088;28;20459;-84
2022/04/11 13:41:30;;;;;;;1.05;0.60;;;17.80;92.40;;;;;;5102224;28;20382;-84
2022/04/11 13:44:07;;;;;;;1.13;0.70;;;17.90;90.40;;;;;;5085207;28;20394;-83
2022/04/11 13:46:34;;;;;;;2.95;0.70;;;17.90;91.20;;;;;;5104791;28;20743;-83
2022/04/11 13:48:59;;;;;;;2.88;0.80;;;18.00;91.80;;;;;;5109594;28;20404;-84
2022/04/11 13:51:35;;;;;;;2.60;0.70;;;18.20;92.60;;;;;;5108009;28;20473;-83
2022/04/11 13:54:03;;;;;;;2.97;0.70;;;18.20;91.50;;;;;;5104007;28;20449;-83
2022/04/11 13:56:32;;;;;;;1.50;0.60;;;18.60;92.50;;;;;;5102291;28;20398;-84
2022/04/11 13:59:13;;;;;;;2.10;0.80;;;18.70;93.30;;;;;;5101139;28;20374;-83
2022/04/11 14:01:48;;;;;;;0.95;0.57;;;18.10;90.70;;;;;;5101780;28;20404;-84
2022/04/11 14:04:20;;;;;;;1.48;0.80;;;18.40;90.60;;;;;;5110461;28;20392;-84
2022/04/11 14:06:48;;;;;;;1.15;0.40;;;17.70;91.10;;;;;;5116682;28;20388;-83
2022/04/11 14:09:25;;;;;;;0.98;0.50;;;18.50;88.90;;;;;;5128495;28;20381;-83
2022/04/11 14:11:53;;;;;;;0.88;0.50;;;18.60;86.60;;;;;;5109649;28;20547;-83